createdAt,value
2019-01-23T00:00:45.579Z,993.72
2019-01-23T00:01:45.565Z,993.64
2019-01-23T00:02:45.554Z,993.64
2019-01-23T00:03:45.566Z,993.61
2019-01-23T00:04:45.533Z,993.65
2019-01-23T00:05:45.523Z,993.63
2019-01-23T00:06:45.511Z,993.62
2019-01-23T00:07:45.502Z,993.62
2019-01-23T00:08:45.509Z,993.58
2019-01-23T00:09:45.478Z,993.56
2019-01-23T00:10:45.471Z,993.53
2019-01-23T00:11:45.455Z,993.51
2019-01-23T00:12:45.445Z,993.55
2019-01-23T00:13:45.455Z,993.52
2019-01-23T00:14:45.423Z,993.49
2019-01-23T00:15:45.418Z,993.52
2019-01-23T00:16:45.402Z,993.48
2019-01-23T00:17:45.390Z,993.54
2019-01-23T00:18:45.407Z,993.48
2019-01-23T00:19:45.369Z,993.52
2019-01-23T00:20:45.358Z,993.44
2019-01-23T00:21:45.352Z,993.46
2019-01-23T00:22:45.339Z,993.43
2019-01-23T00:23:45.351Z,993.44
2019-01-23T00:24:45.314Z,993.45
2019-01-23T00:25:45.312Z,993.41
2019-01-23T00:26:45.296Z,993.45
2019-01-23T00:27:45.281Z,993.43
2019-01-23T00:28:45.298Z,993.46
2019-01-23T00:29:45.261Z,993.42
2019-01-23T00:30:45.250Z,993.40
2019-01-23T00:31:45.240Z,993.37
2019-01-23T00:32:45.229Z,993.35
2019-01-23T00:33:45.239Z,993.35
2019-01-23T00:34:45.205Z,993.33
2019-01-23T00:35:45.195Z,993.35
2019-01-23T00:36:45.183Z,993.34
2019-01-23T00:37:45.177Z,993.28
2019-01-23T00:38:45.237Z,993.18
2019-01-23T00:39:45.156Z,993.17
2019-01-23T00:40:45.143Z,993.21
2019-01-23T00:41:45.130Z,993.15
2019-01-23T00:42:45.119Z,993.14
2019-01-23T00:43:45.108Z,993.10
2019-01-23T00:44:45.119Z,993.17
2019-01-23T00:45:45.088Z,993.15
2019-01-23T00:46:45.074Z,993.17
2019-01-23T00:47:45.063Z,993.04
2019-01-23T00:48:45.053Z,993.08
2019-01-23T00:49:45.061Z,993.06
2019-01-23T00:50:45.031Z,993.05
2019-01-23T00:51:45.027Z,993.04
2019-01-23T00:52:45.008Z,993.03
2019-01-23T00:53:44.998Z,993.02
2019-01-23T00:54:45.007Z,992.98
2019-01-23T00:55:44.985Z,993.01
2019-01-23T00:56:44.971Z,992.98
2019-01-23T00:57:44.958Z,992.94
2019-01-23T00:58:49.145Z,992.95
2019-01-23T00:59:44.957Z,992.94
2019-01-23T01:00:44.921Z,992.93
2019-01-23T01:01:44.913Z,992.95
2019-01-23T01:02:44.899Z,992.96
2019-01-23T01:03:44.892Z,992.90
2019-01-23T01:04:44.898Z,992.96
2019-01-23T01:05:44.867Z,992.93
2019-01-23T01:06:44.858Z,992.90
2019-01-23T01:07:44.844Z,992.90
2019-01-23T01:08:44.833Z,992.87
2019-01-23T01:09:44.860Z,992.82
2019-01-23T01:10:44.812Z,992.81
2019-01-23T01:11:44.801Z,992.86
2019-01-23T01:12:44.795Z,992.82
2019-01-23T01:13:44.779Z,992.83
2019-01-23T01:14:44.770Z,992.85
2019-01-23T01:15:44.780Z,992.85
2019-01-23T01:16:44.751Z,992.88
2019-01-23T01:17:44.777Z,992.89
2019-01-23T01:18:44.724Z,992.86
2019-01-23T01:19:44.714Z,992.89
2019-01-23T01:20:44.722Z,992.85
2019-01-23T01:21:44.691Z,992.86
2019-01-23T01:22:44.685Z,992.86
2019-01-23T01:23:44.673Z,992.85
2019-01-23T01:24:44.658Z,992.83
2019-01-23T01:25:44.671Z,992.84
2019-01-23T01:26:44.640Z,992.79
2019-01-23T01:27:44.633Z,992.76
2019-01-23T01:28:44.615Z,992.76
2019-01-23T01:29:44.604Z,992.78
2019-01-23T01:30:44.617Z,992.80
2019-01-23T01:31:44.582Z,992.73
2019-01-23T01:32:44.570Z,992.76
2019-01-23T01:33:44.559Z,992.76
2019-01-23T01:34:44.548Z,992.72
2019-01-23T01:35:44.558Z,992.71
2019-01-23T01:36:44.530Z,992.68
2019-01-23T01:37:44.515Z,992.71
2019-01-23T01:38:44.506Z,992.67
2019-01-23T01:39:44.497Z,992.70
2019-01-23T01:40:44.503Z,992.64
2019-01-23T01:41:44.473Z,992.66
2019-01-23T01:42:44.460Z,992.65
2019-01-23T01:43:44.457Z,992.65
2019-01-23T01:44:44.438Z,992.60
2019-01-23T01:45:44.451Z,992.63
2019-01-23T01:46:44.419Z,992.63
2019-01-23T01:47:44.406Z,992.61
2019-01-23T01:48:44.396Z,992.61
2019-01-23T01:49:44.384Z,992.60
2019-01-23T01:50:44.395Z,992.59
2019-01-23T01:51:44.362Z,992.62
2019-01-23T01:52:44.379Z,992.63
2019-01-23T01:53:44.340Z,992.60
2019-01-23T01:54:44.335Z,992.62
2019-01-23T01:55:44.338Z,992.59
2019-01-23T01:56:44.309Z,992.56
2019-01-23T01:57:44.301Z,992.59
2019-01-23T01:58:44.285Z,992.56
2019-01-23T01:59:44.274Z,992.55
2019-01-23T02:00:44.288Z,992.56
2019-01-23T02:01:44.257Z,992.52
2019-01-23T02:02:44.244Z,992.55
2019-01-23T02:03:44.230Z,992.54
2019-01-23T02:04:44.220Z,992.58
2019-01-23T02:05:44.231Z,992.60
2019-01-23T02:06:44.200Z,992.56
2019-01-23T02:07:44.194Z,992.57
2019-01-23T02:08:44.178Z,992.51
2019-01-23T02:09:45.568Z,992.50
2019-01-23T02:10:44.180Z,992.51
2019-01-23T02:11:44.149Z,992.50
2019-01-23T02:12:44.133Z,992.53
2019-01-23T02:13:44.123Z,992.51
2019-01-23T02:14:44.115Z,992.49
2019-01-23T02:15:44.121Z,992.54
2019-01-23T02:16:44.108Z,992.48
2019-01-23T02:17:44.078Z,992.48
2019-01-23T02:18:44.067Z,992.48
2019-01-23T02:19:44.059Z,992.49
2019-01-23T02:20:44.067Z,992.46
2019-01-23T02:21:44.036Z,992.46
2019-01-23T02:22:44.023Z,992.41
2019-01-23T02:23:44.016Z,992.40
2019-01-23T02:24:44.001Z,992.40
2019-01-23T02:25:44.014Z,992.42
2019-01-23T02:26:43.980Z,992.41
2019-01-23T02:27:43.967Z,992.37
2019-01-23T02:28:43.996Z,992.38
2019-01-23T02:29:43.946Z,992.38
2019-01-23T02:30:43.954Z,992.32
2019-01-23T02:31:43.927Z,992.32
2019-01-23T02:32:43.912Z,992.32
2019-01-23T02:33:43.905Z,992.30
2019-01-23T02:34:43.891Z,992.28
2019-01-23T02:35:43.911Z,992.30
2019-01-23T02:36:43.869Z,992.31
2019-01-23T02:37:43.860Z,992.28
2019-01-23T02:38:43.849Z,992.27
2019-01-23T02:39:43.836Z,992.28
2019-01-23T02:40:43.856Z,992.27
2019-01-23T02:41:43.817Z,992.26
2019-01-23T02:42:43.803Z,992.26
2019-01-23T02:43:43.799Z,992.20
2019-01-23T02:44:43.785Z,992.22
2019-01-23T02:45:43.771Z,992.16
2019-01-23T02:46:43.889Z,992.20
2019-01-23T02:47:43.761Z,992.18
2019-01-23T02:48:43.737Z,992.15
2019-01-23T02:49:43.730Z,992.14
2019-01-23T02:50:43.718Z,992.07
2019-01-23T02:51:43.838Z,992.11
2019-01-23T02:52:43.693Z,992.07
2019-01-23T02:53:43.683Z,992.06
2019-01-23T02:54:43.673Z,992.05
2019-01-23T02:55:43.663Z,992.08
2019-01-23T02:56:43.670Z,992.01
2019-01-23T02:57:43.638Z,991.96
2019-01-23T02:58:43.629Z,991.98
2019-01-23T02:59:43.616Z,992.01
2019-01-23T03:00:43.606Z,991.95
2019-01-23T03:01:43.614Z,991.95
2019-01-23T03:02:43.583Z,991.97
2019-01-23T03:03:43.573Z,991.93
2019-01-23T03:04:43.565Z,991.89
2019-01-23T03:05:43.569Z,991.94
2019-01-23T03:06:43.670Z,991.94
2019-01-23T03:07:43.536Z,991.89
2019-01-23T03:16:47.375Z,991.80
2019-01-23T03:17:34.214Z,991.79
2019-01-23T03:18:34.205Z,991.75
2019-01-23T03:19:34.194Z,991.79
2019-01-23T03:20:34.187Z,991.69
2019-01-23T03:21:34.193Z,991.73
2019-01-23T03:22:34.159Z,991.68
2019-01-23T03:23:34.157Z,991.66
2019-01-23T03:24:34.141Z,991.62
2019-01-23T03:25:34.130Z,991.67
2019-01-23T03:26:34.139Z,991.62
2019-01-23T03:27:34.107Z,991.65
2019-01-23T03:28:34.101Z,991.60
2019-01-23T03:29:34.085Z,991.60
2019-01-23T03:30:34.082Z,991.61
2019-01-23T03:31:34.088Z,991.60
2019-01-23T03:32:34.054Z,991.53
2019-01-23T03:33:43.279Z,991.55
2019-01-23T03:34:42.522Z,991.53
2019-01-23T03:35:34.020Z,991.56
2019-01-23T03:36:34.033Z,991.53
2019-01-23T03:37:34.004Z,991.50
2019-01-23T03:38:33.986Z,991.52
2019-01-23T03:39:33.975Z,991.48
2019-01-23T03:40:33.970Z,991.54
2019-01-23T03:41:33.981Z,991.51
2019-01-23T03:42:33.948Z,991.51
2019-01-23T03:43:33.943Z,991.51
2019-01-23T03:44:42.194Z,991.47
2019-01-23T03:45:33.912Z,991.55
2019-01-23T03:46:34.192Z,991.48
2019-01-23T03:47:33.892Z,991.48
2019-01-23T03:48:33.879Z,991.53
2019-01-23T03:49:42.447Z,991.53
2019-01-23T03:50:33.863Z,991.47
2019-01-23T03:51:33.850Z,991.43
2019-01-23T03:52:33.856Z,991.49
2019-01-23T03:53:33.830Z,991.43
2019-01-23T03:54:33.815Z,991.43
2019-01-23T03:55:33.808Z,991.43
2019-01-23T03:56:33.792Z,991.46
2019-01-23T03:57:33.803Z,991.40
2019-01-23T03:58:33.774Z,991.42
2019-01-23T03:59:33.775Z,991.39
2019-01-23T04:00:33.757Z,991.37
2019-01-23T04:01:33.740Z,991.39
2019-01-23T04:02:33.754Z,991.34
2019-01-23T04:03:33.720Z,991.29
2019-01-23T04:04:33.709Z,991.32
2019-01-23T04:05:33.696Z,991.35
2019-01-23T04:06:33.691Z,991.36
2019-01-23T04:07:33.697Z,991.34
2019-01-23T04:08:33.665Z,991.33
2019-01-23T04:09:33.653Z,991.38
2019-01-23T04:10:33.643Z,991.36
2019-01-23T04:11:42.910Z,991.31
2019-01-23T04:12:33.648Z,991.32
2019-01-23T04:13:33.614Z,991.31
2019-01-23T04:14:33.604Z,991.34
2019-01-23T04:15:33.591Z,991.30
2019-01-23T04:16:33.578Z,991.30
2019-01-23T04:17:33.591Z,991.29
2019-01-23T04:18:43.679Z,991.26
2019-01-23T04:19:33.546Z,991.31
2019-01-23T04:20:33.534Z,991.30
2019-01-23T04:21:33.523Z,991.31
2019-01-23T04:22:33.543Z,991.32
2019-01-23T04:23:33.511Z,991.26
2019-01-23T04:24:33.495Z,991.29
2019-01-23T04:25:33.483Z,991.23
2019-01-23T04:26:33.478Z,991.22
2019-01-23T04:27:33.464Z,991.23
2019-01-23T04:28:33.470Z,991.19
2019-01-23T04:29:39.473Z,991.21
2019-01-23T04:30:33.432Z,991.25
2019-01-23T04:31:33.418Z,991.18
2019-01-23T04:32:33.405Z,991.17
2019-01-23T04:33:42.839Z,991.20
2019-01-23T04:34:33.384Z,991.17
2019-01-23T04:35:33.374Z,991.13
2019-01-23T04:36:33.364Z,991.15
2019-01-23T04:37:33.353Z,991.16
2019-01-23T04:38:33.362Z,991.18
2019-01-23T04:39:33.332Z,991.15
2019-01-23T04:40:33.319Z,991.15
2019-01-23T04:41:33.312Z,991.15
2019-01-23T04:42:33.297Z,991.13
2019-01-23T04:43:33.309Z,991.12
2019-01-23T04:44:33.276Z,991.14
2019-01-23T04:45:33.267Z,991.08
2019-01-23T04:46:33.259Z,991.11
2019-01-23T04:47:33.244Z,991.09
2019-01-23T04:48:41.507Z,991.12
2019-01-23T04:49:34.845Z,991.12
2019-01-23T04:50:33.213Z,991.10
2019-01-23T04:51:33.202Z,991.12
2019-01-23T04:52:33.190Z,991.17
2019-01-23T04:53:33.204Z,991.12
2019-01-23T04:54:33.169Z,991.14
2019-01-23T04:55:33.160Z,991.10
2019-01-23T04:56:34.384Z,991.06
2019-01-23T04:57:33.136Z,991.11
2019-01-23T04:58:33.149Z,991.09
2019-01-23T04:59:33.115Z,991.11
2019-01-23T05:00:33.112Z,991.10
2019-01-23T05:01:33.098Z,991.08
2019-01-23T05:02:33.084Z,991.09
2019-01-23T05:03:33.109Z,991.06
2019-01-23T05:04:33.062Z,991.06
2019-01-23T05:05:33.056Z,991.05
2019-01-23T05:06:33.044Z,991.03
2019-01-23T05:07:42.399Z,991.04
2019-01-23T05:08:33.021Z,990.99
2019-01-23T05:09:33.031Z,991.00
2019-01-23T05:10:33.001Z,990.99
2019-01-23T05:11:32.989Z,990.97
2019-01-23T05:12:32.984Z,990.94
2019-01-23T05:13:32.966Z,990.97
2019-01-23T05:14:32.985Z,990.95
2019-01-23T05:15:32.945Z,990.94
2019-01-23T05:16:32.933Z,990.91
2019-01-23T05:17:42.129Z,990.94
2019-01-23T05:18:32.911Z,990.92
2019-01-23T05:19:32.924Z,990.95
2019-01-23T05:20:32.890Z,990.92
2019-01-23T05:21:32.883Z,990.96
2019-01-23T05:22:32.869Z,990.92
2019-01-23T05:23:32.859Z,990.90
2019-01-23T05:24:32.872Z,990.89
2019-01-23T05:25:32.835Z,990.88
2019-01-23T05:26:42.605Z,990.91
2019-01-23T05:27:32.817Z,990.90
2019-01-23T05:28:32.804Z,990.94
2019-01-23T05:29:32.812Z,990.90
2019-01-23T05:30:32.789Z,990.89
2019-01-23T05:31:32.774Z,990.92
2019-01-23T05:32:41.266Z,990.86
2019-01-23T05:33:32.749Z,990.92
2019-01-23T05:34:32.771Z,990.92
2019-01-23T05:35:32.729Z,990.87
2019-01-23T05:36:32.729Z,990.84
2019-01-23T05:37:32.707Z,990.90
2019-01-23T05:38:32.696Z,990.87
2019-01-23T05:39:32.720Z,990.87
2019-01-23T05:40:32.682Z,990.90
2019-01-23T05:41:32.665Z,990.87
2019-01-23T05:42:32.659Z,990.83
2019-01-23T05:43:32.645Z,990.87
2019-01-23T05:44:32.631Z,990.90
2019-01-23T05:45:32.648Z,990.86
2019-01-23T05:46:32.610Z,990.83
2019-01-23T05:47:32.606Z,990.87
2019-01-23T05:48:32.595Z,990.87
2019-01-23T05:49:32.580Z,990.83
2019-01-23T05:50:32.587Z,990.88
2019-01-23T05:51:32.555Z,990.87
2019-01-23T05:52:32.545Z,990.87
2019-01-23T05:53:32.540Z,990.88
2019-01-23T05:54:32.531Z,990.91
2019-01-23T05:55:32.534Z,990.86
2019-01-23T05:56:32.504Z,990.89
2019-01-23T05:57:32.497Z,990.88
2019-01-23T05:58:32.482Z,990.88
2019-01-23T05:59:32.473Z,990.87
2019-01-23T06:00:32.485Z,990.80
2019-01-23T06:01:32.450Z,990.88
2019-01-23T06:02:32.444Z,990.87
2019-01-23T06:03:40.890Z,990.83
2019-01-23T06:04:32.417Z,990.84
2019-01-23T06:05:32.431Z,990.94
2019-01-23T06:06:32.396Z,990.87
2019-01-23T06:07:32.384Z,990.86
2019-01-23T06:08:32.374Z,990.83
2019-01-23T06:09:32.363Z,990.86
2019-01-23T06:10:32.376Z,990.88
2019-01-23T06:11:32.353Z,990.90
2019-01-23T06:12:32.333Z,990.88
2019-01-23T06:13:32.320Z,990.83
2019-01-23T06:14:32.312Z,990.86
2019-01-23T06:15:32.374Z,990.85
2019-01-23T06:16:42.786Z,990.87
2019-01-23T06:17:32.276Z,990.88
2019-01-23T06:18:32.266Z,990.85
2019-01-23T06:19:32.258Z,990.83
2019-01-23T06:20:32.266Z,990.87
2019-01-23T06:21:32.233Z,990.84
2019-01-23T06:22:32.225Z,990.88
2019-01-23T06:23:32.212Z,990.90
2019-01-23T06:24:32.210Z,990.88
2019-01-23T06:25:32.216Z,990.89
2019-01-23T06:26:32.180Z,990.91
2019-01-23T06:27:32.170Z,990.90
2019-01-23T06:28:32.891Z,990.86
2019-01-23T06:29:32.148Z,990.88
2019-01-23T06:30:32.163Z,990.84
2019-01-23T06:31:32.128Z,990.83
2019-01-23T06:32:32.119Z,990.91
2019-01-23T06:33:32.107Z,990.88
2019-01-23T06:34:32.095Z,990.88
2019-01-23T06:35:32.106Z,990.89
2019-01-23T06:36:32.072Z,990.85
2019-01-23T06:37:32.061Z,990.84
2019-01-23T06:38:32.051Z,990.85
2019-01-23T06:39:32.039Z,990.87
2019-01-23T06:40:32.073Z,990.89
2019-01-23T06:41:32.018Z,990.90
2019-01-23T06:42:32.006Z,990.92
2019-01-23T06:43:32.001Z,990.94
2019-01-23T06:44:31.984Z,990.91
2019-01-23T06:45:31.995Z,990.88
2019-01-23T06:46:31.968Z,990.91
2019-01-23T06:47:31.952Z,990.88
2019-01-23T06:48:31.942Z,990.87
2019-01-23T06:49:31.932Z,990.84
2019-01-23T06:50:31.942Z,990.82
2019-01-23T06:51:31.909Z,990.81
2019-01-23T06:52:31.902Z,990.82
2019-01-23T06:53:31.893Z,990.83
2019-01-23T06:54:31.880Z,990.82
2019-01-23T06:55:31.889Z,990.81
2019-01-23T06:56:31.858Z,990.79
2019-01-23T06:57:31.845Z,990.83
2019-01-23T06:58:31.844Z,990.79
2019-01-23T06:59:31.824Z,990.79
2019-01-23T07:00:31.837Z,990.77
2019-01-23T07:01:31.804Z,990.78
2019-01-23T07:02:31.791Z,990.77
2019-01-23T07:03:31.781Z,990.80
2019-01-23T07:04:31.770Z,990.77
2019-01-23T07:05:31.780Z,990.78
2019-01-23T07:06:31.750Z,990.77
2019-01-23T07:07:31.737Z,990.77
2019-01-23T07:08:31.726Z,990.76
2019-01-23T07:09:31.719Z,990.78
2019-01-23T07:10:31.740Z,990.80
2019-01-23T07:11:31.694Z,990.83
2019-01-23T07:12:31.687Z,990.79
2019-01-23T07:13:31.675Z,990.77
2019-01-23T07:14:31.662Z,990.82
2019-01-23T07:15:31.657Z,990.86
2019-01-23T07:16:31.660Z,990.84
2019-01-23T07:17:31.628Z,990.85
2019-01-23T07:18:31.619Z,990.81
2019-01-23T07:19:31.608Z,990.85
2019-01-23T07:20:31.598Z,990.85
2019-01-23T07:21:31.606Z,990.86
2019-01-23T07:22:31.574Z,990.81
2019-01-23T07:23:31.565Z,990.83
2019-01-23T07:24:31.552Z,990.87
2019-01-23T07:25:31.542Z,990.85
2019-01-23T07:26:31.552Z,990.87
2019-01-23T07:27:31.526Z,990.93
2019-01-23T07:28:31.512Z,990.91
2019-01-23T07:29:31.505Z,990.90
2019-01-23T07:30:31.495Z,990.95
2019-01-23T07:31:31.502Z,990.92
2019-01-23T07:32:31.470Z,990.94
2019-01-23T07:33:31.456Z,990.93
2019-01-23T07:34:31.444Z,990.87
2019-01-23T07:35:31.433Z,990.93
2019-01-23T07:36:31.443Z,990.97
2019-01-23T07:37:31.413Z,990.93
2019-01-23T07:38:31.409Z,990.94
2019-01-23T07:39:31.395Z,990.91
2019-01-23T07:40:31.381Z,990.98
2019-01-23T07:41:31.399Z,990.95
2019-01-23T07:42:31.358Z,990.94
2019-01-23T07:43:31.349Z,990.92
2019-01-23T07:44:31.336Z,990.97
2019-01-23T07:45:31.328Z,990.98
2019-01-23T07:46:31.353Z,990.94
2019-01-23T07:47:31.308Z,990.93
2019-01-23T07:48:31.296Z,990.95
2019-01-23T07:49:31.289Z,990.97
2019-01-23T07:50:31.272Z,990.96
2019-01-23T07:51:31.265Z,990.96
2019-01-23T07:52:31.274Z,990.99
2019-01-23T07:53:31.242Z,990.97
2019-01-23T07:54:31.229Z,990.97
2019-01-23T07:55:31.220Z,991.00
2019-01-23T07:56:31.208Z,990.96
2019-01-23T07:57:31.217Z,991.00
2019-01-23T07:58:31.187Z,991.01
2019-01-23T07:59:31.177Z,991.01
2019-01-23T08:00:31.763Z,991.04
2019-01-23T08:01:31.162Z,991.05
2019-01-23T08:02:31.168Z,991.06
2019-01-23T08:03:31.131Z,991.05
2019-01-23T08:04:31.126Z,991.05
2019-01-23T08:05:31.111Z,991.07
2019-01-23T08:06:31.105Z,991.10
2019-01-23T08:07:31.115Z,991.09
2019-01-23T08:08:31.083Z,991.09
2019-01-23T08:09:31.071Z,991.07
2019-01-23T08:10:31.058Z,991.10
2019-01-23T08:11:31.046Z,991.12
2019-01-23T08:12:31.056Z,991.10
2019-01-23T08:13:31.025Z,991.12
2019-01-23T08:14:31.013Z,991.07
2019-01-23T08:15:31.003Z,991.13
2019-01-23T08:16:30.992Z,991.08
2019-01-23T08:17:32.811Z,991.09
2019-01-23T08:18:30.970Z,991.13
2019-01-23T08:19:30.961Z,991.10
2019-01-23T08:20:30.949Z,991.11
2019-01-23T08:21:30.944Z,991.10
2019-01-23T08:22:31.119Z,991.14
2019-01-23T08:23:30.919Z,991.09
2019-01-23T08:24:30.905Z,991.08
2019-01-23T08:25:30.931Z,991.10
2019-01-23T08:26:30.887Z,991.10
2019-01-23T08:27:30.873Z,991.12
2019-01-23T08:28:30.885Z,991.13
2019-01-23T08:29:30.850Z,991.14
2019-01-23T08:30:30.840Z,991.16
2019-01-23T08:31:30.828Z,991.10
2019-01-23T08:32:30.827Z,991.07
2019-01-23T08:33:30.838Z,991.08
2019-01-23T08:34:30.796Z,991.12
2019-01-23T08:35:30.785Z,991.12
2019-01-23T08:36:30.775Z,991.10
2019-01-23T08:37:30.767Z,991.18
2019-01-23T08:38:30.775Z,991.11
2019-01-23T08:39:30.745Z,991.11
2019-01-23T08:40:30.733Z,991.12
2019-01-23T08:41:30.720Z,991.16
2019-01-23T08:42:30.710Z,991.15
2019-01-23T08:43:30.723Z,991.17
2019-01-23T08:44:30.688Z,991.14
2019-01-23T08:45:30.678Z,991.15
2019-01-23T08:46:30.668Z,991.14
2019-01-23T08:47:30.657Z,991.16
2019-01-23T08:48:30.669Z,991.14
2019-01-23T08:49:30.636Z,991.17
2019-01-23T08:50:30.624Z,991.13
2019-01-23T08:51:30.613Z,991.18
2019-01-23T08:52:30.603Z,991.16
2019-01-23T08:53:30.612Z,991.20
2019-01-23T08:54:30.584Z,991.11
2019-01-23T08:55:30.573Z,991.14
2019-01-23T08:56:30.569Z,991.14
2019-01-23T08:57:30.551Z,991.22
2019-01-23T08:58:30.560Z,991.19
2019-01-23T08:59:30.527Z,991.18
2019-01-23T09:00:30.520Z,991.24
2019-01-23T09:01:30.506Z,991.27
2019-01-23T09:02:30.499Z,991.26
2019-01-23T09:03:30.526Z,991.26
2019-01-23T09:04:30.475Z,991.26
2019-01-23T09:05:30.463Z,991.28
2019-01-23T09:06:30.453Z,991.24
2019-01-23T09:07:30.443Z,991.23
2019-01-23T09:08:37.472Z,991.26
2019-01-23T09:09:30.444Z,991.24
2019-01-23T09:10:30.408Z,991.30
2019-01-23T09:11:30.398Z,991.27
2019-01-23T09:12:30.394Z,991.26
2019-01-23T09:13:30.376Z,991.27
2019-01-23T09:14:30.388Z,991.33
2019-01-23T09:15:30.355Z,991.23
2019-01-23T09:16:30.344Z,991.25
2019-01-23T09:17:30.336Z,991.24
2019-01-23T09:18:30.323Z,991.24
2019-01-23T09:19:30.332Z,991.22
2019-01-23T09:20:30.303Z,991.26
2019-01-23T09:21:30.292Z,991.32
2019-01-23T09:22:30.279Z,991.28
2019-01-23T09:23:30.271Z,991.34
2019-01-23T09:24:30.280Z,991.30
2019-01-23T09:25:30.247Z,991.33
2019-01-23T09:26:30.238Z,991.36
2019-01-23T09:27:30.226Z,991.32
2019-01-23T09:28:30.214Z,991.37
2019-01-23T09:29:30.228Z,991.39
2019-01-23T09:30:30.196Z,991.32
2019-01-23T09:31:30.183Z,991.32
2019-01-23T09:32:30.174Z,991.31
2019-01-23T09:33:30.162Z,991.33
2019-01-23T09:34:30.172Z,991.36
2019-01-23T09:35:30.140Z,991.35
2019-01-23T09:36:30.131Z,991.40
2019-01-23T09:37:30.117Z,991.37
2019-01-23T09:38:30.106Z,991.36
2019-01-23T09:39:30.118Z,991.36
2019-01-23T09:40:30.089Z,991.30
2019-01-23T09:41:30.074Z,991.34
2019-01-23T09:42:30.064Z,991.35
2019-01-23T09:43:30.052Z,991.33
2019-01-23T09:44:30.069Z,991.36
2019-01-23T09:45:30.031Z,991.39
2019-01-23T09:46:30.019Z,991.39
2019-01-23T09:47:30.008Z,991.40
2019-01-23T09:48:30.002Z,991.41
2019-01-23T09:49:30.113Z,991.44
2019-01-23T09:50:29.978Z,991.44
2019-01-23T09:51:29.966Z,991.44
2019-01-23T09:52:29.956Z,991.48
2019-01-23T09:53:29.949Z,991.45
2019-01-23T09:54:29.935Z,991.39
2019-01-23T09:55:29.954Z,991.40
2019-01-23T09:56:29.915Z,991.46
2019-01-23T09:57:29.900Z,991.45
2019-01-23T09:58:29.890Z,991.44
2019-01-23T09:59:29.879Z,991.42
2019-01-23T10:00:31.799Z,991.42
2019-01-23T10:01:29.860Z,991.49
2019-01-23T10:02:29.847Z,991.49
2019-01-23T10:03:29.842Z,991.43
2019-01-23T10:04:29.824Z,991.46
2019-01-23T10:05:29.835Z,991.48
2019-01-23T10:06:29.806Z,991.44
2019-01-23T10:07:29.793Z,991.45
2019-01-23T10:08:29.780Z,991.40
2019-01-23T10:09:29.768Z,991.43
2019-01-23T10:10:29.781Z,991.45
2019-01-23T10:11:29.749Z,991.43
2019-01-23T10:12:29.737Z,991.41
2019-01-23T10:13:29.726Z,991.39
2019-01-23T10:14:29.717Z,991.36
2019-01-23T10:15:29.725Z,991.39
2019-01-23T10:16:29.693Z,991.41
2019-01-23T10:17:29.682Z,991.34
2019-01-23T10:18:29.672Z,991.37
2019-01-23T10:19:29.660Z,991.38
2019-01-23T10:20:29.669Z,991.36
2019-01-23T10:21:29.637Z,991.36
2019-01-23T10:22:29.626Z,991.41
2019-01-23T10:23:29.615Z,991.45
2019-01-23T10:24:35.716Z,991.38
2019-01-23T10:25:29.666Z,991.41
2019-01-23T10:26:29.588Z,991.36
2019-01-23T10:27:29.578Z,991.40
2019-01-23T10:28:29.591Z,991.37
2019-01-23T10:29:29.549Z,991.43
2019-01-23T10:30:29.537Z,991.46
2019-01-23T10:31:29.547Z,991.44
2019-01-23T10:32:29.517Z,991.44
2019-01-23T10:33:29.506Z,991.53
2019-01-23T10:34:29.496Z,991.48
2019-01-23T10:35:29.483Z,991.47
2019-01-23T10:36:29.492Z,991.45
2019-01-23T10:37:29.461Z,991.46
2019-01-23T10:38:29.451Z,991.48
2019-01-23T10:39:29.439Z,991.47
2019-01-23T10:40:29.427Z,991.46
2019-01-23T10:41:29.437Z,991.47
2019-01-23T10:42:29.404Z,991.49
2019-01-23T10:43:29.393Z,991.49
2019-01-23T10:44:29.388Z,991.43
2019-01-23T10:45:29.376Z,991.51
2019-01-23T10:46:29.385Z,991.49
2019-01-23T10:47:29.350Z,991.46
2019-01-23T10:48:29.339Z,991.51
2019-01-23T10:49:29.336Z,991.43
2019-01-23T10:50:29.317Z,991.45
2019-01-23T10:51:29.326Z,991.45
2019-01-23T10:52:29.305Z,991.45
2019-01-23T10:53:29.284Z,991.56
2019-01-23T10:54:29.273Z,991.49
2019-01-23T10:55:29.261Z,991.49
2019-01-23T10:56:29.272Z,991.52
2019-01-23T10:57:29.243Z,991.49
2019-01-23T10:58:29.233Z,991.47
2019-01-23T10:59:29.221Z,991.52
2019-01-23T11:00:29.206Z,991.51
2019-01-23T11:01:29.236Z,991.51
2019-01-23T11:02:29.186Z,991.49
2019-01-23T11:03:29.174Z,991.47
2019-01-23T11:04:29.162Z,991.46
2019-01-23T11:05:29.153Z,991.49
2019-01-23T11:06:29.140Z,991.48
2019-01-23T11:07:29.155Z,991.48
2019-01-23T11:08:29.119Z,991.48
2019-01-23T11:09:29.215Z,991.48
2019-01-23T11:10:29.100Z,991.52
2019-01-23T11:11:29.088Z,991.54
2019-01-23T11:12:29.094Z,991.53
2019-01-23T11:13:29.062Z,991.57
2019-01-23T11:14:29.055Z,991.52
2019-01-23T11:15:29.041Z,991.55
2019-01-23T11:16:29.035Z,991.57
2019-01-23T11:17:29.040Z,991.58
2019-01-23T11:18:29.007Z,991.61
2019-01-23T11:19:28.998Z,991.61
2019-01-23T11:20:28.988Z,991.62
2019-01-23T11:21:28.977Z,991.67
2019-01-23T11:22:29.011Z,991.64
2019-01-23T11:23:28.952Z,991.64
2019-01-23T11:24:28.943Z,991.66
2019-01-23T11:25:28.929Z,991.67
2019-01-23T11:26:28.920Z,991.65
2019-01-23T11:27:28.908Z,991.64
2019-01-23T11:28:28.922Z,991.69
2019-01-23T11:29:28.891Z,991.64
2019-01-23T11:30:28.877Z,991.65
2019-01-23T11:31:28.864Z,991.61
2019-01-23T11:32:28.854Z,991.64
2019-01-23T11:33:28.867Z,991.67
2019-01-23T11:34:28.834Z,991.61
2019-01-23T11:35:28.820Z,991.63
2019-01-23T11:36:28.808Z,991.60
2019-01-23T11:37:28.798Z,991.58
2019-01-23T11:38:28.808Z,991.61
2019-01-23T11:39:28.776Z,991.60
2019-01-23T11:40:28.765Z,991.58
2019-01-23T11:41:28.754Z,991.59
2019-01-23T11:42:28.743Z,991.58
2019-01-23T11:43:28.752Z,991.58
2019-01-23T11:44:28.720Z,991.59
2019-01-23T11:45:28.712Z,991.64
2019-01-23T11:46:28.700Z,991.61
2019-01-23T11:47:28.688Z,991.66
2019-01-23T11:48:28.698Z,991.62
2019-01-23T11:49:28.666Z,991.65
2019-01-23T11:50:28.656Z,991.66
2019-01-23T11:51:28.650Z,991.68
2019-01-23T11:52:28.634Z,991.70
2019-01-23T11:53:28.643Z,991.71
2019-01-23T11:54:28.612Z,991.69
2019-01-23T11:55:28.603Z,991.71
2019-01-23T11:56:28.591Z,991.74
2019-01-23T11:57:28.581Z,991.79
2019-01-23T11:58:28.587Z,991.77
2019-01-23T11:59:28.557Z,991.81
2019-01-23T12:00:28.547Z,991.79
2019-01-23T12:01:28.535Z,991.80
2019-01-23T12:02:30.933Z,991.82
2019-01-23T12:03:28.659Z,991.85
2019-01-23T12:04:28.502Z,991.78
2019-01-23T12:05:28.490Z,991.86
2019-01-23T12:06:28.480Z,991.86
2019-01-23T12:07:28.471Z,991.84
2019-01-23T12:08:28.458Z,991.83
2019-01-23T12:09:28.473Z,991.81
2019-01-23T12:10:28.435Z,991.78
2019-01-23T12:11:28.425Z,991.81
2019-01-23T12:12:28.415Z,991.81
2019-01-23T12:13:28.403Z,991.80
2019-01-23T12:14:28.413Z,991.81
2019-01-23T12:15:28.384Z,991.74
2019-01-23T12:16:28.371Z,991.77
2019-01-23T12:17:28.360Z,991.76
2019-01-23T12:18:28.350Z,991.74
2019-01-23T12:19:28.360Z,991.75
2019-01-23T12:20:28.327Z,991.79
2019-01-23T12:21:28.317Z,991.77
2019-01-23T12:22:28.305Z,991.73
2019-01-23T12:23:28.294Z,991.78
2019-01-23T12:24:28.306Z,991.76
2019-01-23T12:25:28.275Z,991.83
2019-01-23T12:26:28.261Z,991.86
2019-01-23T12:27:28.250Z,991.83
2019-01-23T12:28:28.239Z,991.83
2019-01-23T12:29:28.248Z,991.77
2019-01-23T12:30:28.217Z,991.84
2019-01-23T12:31:34.682Z,991.85
2019-01-23T12:32:28.200Z,991.85
2019-01-23T12:33:28.185Z,991.84
2019-01-23T12:34:28.193Z,991.88
2019-01-23T12:35:28.162Z,991.85
2019-01-23T12:36:28.151Z,991.81